createdAt,value
2019-06-07T00:00:56.344Z,7.30
2019-06-07T00:03:29.891Z,7.05
2019-06-07T00:05:57.849Z,7.67
2019-06-07T00:08:29.232Z,7.60
2019-06-07T00:10:59.530Z,6.97
2019-06-07T00:13:29.439Z,6.85
2019-06-07T00:15:59.278Z,7.53
2019-06-07T00:18:29.202Z,7.08
2019-06-07T00:20:59.041Z,7.67
2019-06-07T00:23:28.689Z,7.58
2019-06-07T00:25:58.598Z,6.92
2019-06-07T00:28:28.484Z,7.30
2019-06-07T00:30:58.353Z,7.30
2019-06-07T00:33:29.328Z,7.80
2019-06-07T00:35:59.183Z,7.37
2019-06-07T00:38:29.042Z,7.33
2019-06-07T00:40:58.957Z,7.70
2019-06-07T00:43:28.927Z,7.45
2019-06-07T00:45:58.719Z,7.53
2019-06-07T00:48:32.763Z,7.08
2019-06-07T00:51:00.133Z,7.37
2019-06-07T00:53:32.555Z,7.33
2019-06-07T00:56:01.603Z,7.53
2019-06-07T00:58:31.782Z,7.30
2019-06-07T01:01:01.772Z,7.80
2019-06-07T01:03:31.556Z,7.65
2019-06-07T01:06:01.417Z,7.60
2019-06-07T01:08:31.357Z,7.60
2019-06-07T01:11:01.211Z,7.83
2019-06-07T01:13:30.946Z,7.50
2019-06-07T01:16:00.801Z,8.08
2019-06-07T01:18:39.131Z,7.40
2019-06-07T01:21:03.684Z,7.90
2019-06-07T01:24:08.740Z,7.42
2019-06-07T01:26:05.132Z,8.23
2019-06-07T01:28:34.985Z,7.67
2019-06-07T01:31:04.904Z,7.65
2019-06-07T01:33:50.306Z,7.50
2019-06-07T01:36:06.279Z,7.90
2019-06-07T01:38:35.865Z,7.80
2019-06-07T01:41:05.781Z,8.13
2019-06-07T01:43:35.772Z,7.78
2019-06-07T01:46:05.706Z,7.78
2019-06-07T01:48:49.049Z,7.35
2019-06-07T01:51:06.849Z,7.33
2019-06-07T01:53:36.708Z,7.92
2019-06-07T01:56:06.670Z,7.95
2019-06-07T01:58:36.404Z,7.95
2019-06-07T02:01:06.321Z,7.40
2019-06-07T02:03:36.173Z,8.13
2019-06-07T02:06:06.222Z,7.78
2019-06-07T02:08:36.000Z,8.23
2019-06-07T02:11:05.889Z,8.05
2019-06-07T02:13:35.689Z,8.43
2019-06-07T02:16:05.619Z,8.60
2019-06-07T02:18:35.477Z,8.55
2019-06-07T02:21:05.340Z,7.80
2019-06-07T02:23:35.081Z,8.73
2019-06-07T02:26:05.065Z,7.97
2019-06-07T02:28:44.985Z,8.30
2019-06-07T02:31:06.305Z,8.65
2019-06-07T02:33:40.106Z,8.00
2019-06-07T02:36:07.663Z,8.10
2019-06-07T02:38:38.027Z,8.35
2019-06-07T02:41:08.706Z,7.92
2019-06-07T02:43:38.647Z,8.03
2019-06-07T02:46:25.355Z,7.78
2019-06-07T02:48:41.693Z,8.30
2019-06-07T02:51:11.508Z,7.95
2019-06-07T02:53:41.331Z,8.18
2019-06-07T02:56:37.572Z,8.83
2019-06-07T02:58:42.574Z,8.03
2019-06-07T03:01:12.627Z,8.25
2019-06-07T03:03:42.851Z,8.33
2019-06-07T03:06:14.520Z,8.05
2019-06-07T03:08:46.993Z,8.90
2019-06-07T03:11:17.411Z,8.60
2019-06-07T03:13:48.434Z,8.70
2019-06-07T03:16:20.837Z,9.07
2019-06-07T03:18:52.713Z,9.03
2019-06-07T03:23:55.997Z,8.70
2019-06-07T03:26:27.624Z,8.93
2019-06-07T03:28:58.305Z,8.85
2019-06-07T03:31:31.783Z,8.95
2019-06-07T03:33:59.772Z,9.00
2019-06-07T03:36:29.797Z,8.68
2019-06-07T03:38:59.641Z,8.73
2019-06-07T03:41:36.754Z,8.28
2019-06-07T03:44:00.788Z,9.48
2019-06-07T03:46:34.362Z,9.25
2019-06-07T03:49:02.579Z,8.58
2019-06-07T03:51:34.872Z,8.90
2019-06-07T03:54:04.032Z,9.25
2019-06-07T03:56:36.031Z,8.65
2019-06-07T03:59:06.443Z,10.03
2019-06-07T04:01:38.518Z,9.15
2019-06-07T04:04:07.652Z,8.45
2019-06-07T04:06:41.942Z,9.93
2019-06-07T04:09:08.917Z,8.85
2019-06-07T04:11:39.383Z,9.33
2019-06-07T04:14:10.135Z,9.98
2019-06-07T04:16:43.629Z,8.68
2019-06-07T04:19:11.564Z,9.13
2019-06-07T04:21:42.928Z,8.55
2019-06-07T04:24:12.997Z,9.23
2019-06-07T04:26:43.766Z,8.95
2019-06-07T04:31:45.716Z,8.23
2019-06-07T04:34:15.730Z,8.28
2019-06-07T04:36:58.697Z,8.68
2019-06-07T04:39:20.113Z,8.95
2019-06-07T04:41:51.962Z,8.73
2019-06-07T04:46:52.511Z,8.68
2019-06-07T04:49:25.639Z,8.58
2019-06-07T04:51:57.606Z,8.38
2019-06-07T04:54:27.504Z,8.93
2019-06-07T04:56:57.222Z,8.23
2019-06-07T05:00:11.378Z,8.60
2019-06-07T05:01:58.352Z,8.43
2019-06-07T05:04:28.988Z,8.70
2019-06-07T05:06:59.336Z,8.70
2019-06-07T05:09:30.119Z,9.23
2019-06-07T05:12:00.208Z,8.90
2019-06-07T05:14:32.550Z,8.33
2019-06-07T05:17:02.007Z,8.40
2019-06-07T05:19:35.158Z,9.08
2019-06-07T05:22:05.106Z,8.25
2019-06-07T05:24:37.686Z,8.50
2019-06-07T05:27:06.376Z,8.78
2019-06-07T05:29:38.369Z,8.15
2019-06-07T05:32:08.621Z,7.85
2019-06-07T05:34:41.893Z,8.25
2019-06-07T05:37:12.071Z,7.97
2019-06-07T05:39:45.619Z,7.53
2019-06-07T05:42:12.732Z,8.93
2019-06-07T05:44:45.465Z,7.97
2019-06-07T05:47:14.292Z,7.75
2019-06-07T05:49:46.954Z,7.75
2019-06-07T05:52:15.558Z,8.33
2019-06-07T05:54:47.002Z,8.43
2019-06-07T05:57:16.790Z,8.43
2019-06-07T05:59:47.626Z,8.45
2019-06-07T06:02:22.494Z,8.08
2019-06-07T06:04:49.804Z,7.60
2019-06-07T06:07:19.800Z,8.38
2019-06-07T06:09:49.658Z,7.78
2019-06-07T06:12:33.898Z,7.72
2019-06-07T06:14:51.212Z,8.23
2019-06-07T06:17:21.068Z,7.83
2019-06-07T06:19:53.407Z,7.60
2019-06-07T06:22:23.560Z,7.12
2019-06-07T06:25:29.748Z,7.40
2019-06-07T06:29:55.881Z,7.85
2019-06-07T06:32:49.373Z,8.10
2019-06-07T06:34:57.323Z,7.62
2019-06-07T06:37:27.164Z,7.37
2019-06-07T06:39:56.995Z,7.17
2019-06-07T06:42:26.941Z,7.00
2019-06-07T06:44:56.763Z,10.60
2019-06-07T06:47:26.649Z,8.53
2019-06-07T06:49:56.459Z,7.20
2019-06-07T06:52:26.325Z,7.72
2019-06-07T06:55:00.795Z,8.13
2019-06-07T06:57:27.875Z,7.37
2019-06-07T06:59:57.710Z,7.25
2019-06-07T07:02:27.736Z,7.28
2019-06-07T07:04:57.641Z,6.67
2019-06-07T07:07:28.272Z,6.75
2019-06-07T07:10:00.020Z,7.12
2019-06-07T07:12:29.994Z,7.22
2019-06-07T07:14:59.755Z,7.45
2019-06-07T07:17:47.872Z,7.12
2019-06-07T07:20:00.975Z,7.28
2019-06-07T07:22:30.842Z,6.58
2019-06-07T07:25:00.775Z,7.00
2019-06-07T07:27:30.638Z,6.55
2019-06-07T07:30:34.854Z,6.90
2019-06-07T07:35:01.136Z,6.58
2019-06-07T07:37:31.983Z,6.15
2019-06-07T07:40:54.906Z,6.28
2019-06-07T07:42:35.241Z,5.70
2019-06-07T07:45:06.815Z,5.62
2019-06-07T07:47:57.135Z,5.87
2019-06-07T07:52:37.353Z,7.10
2019-06-07T07:55:07.228Z,6.80
2019-06-07T07:57:37.141Z,7.12
2019-06-07T08:00:48.504Z,6.58
2019-06-07T08:02:39.251Z,6.60
2019-06-07T08:05:23.322Z,5.83
2019-06-07T08:07:40.712Z,5.97
2019-06-07T08:10:11.126Z,5.80
2019-06-07T08:13:00.479Z,5.87
2019-06-07T08:15:13.420Z,5.90
2019-06-07T08:17:43.332Z,5.23
2019-06-07T08:20:13.793Z,5.30
2019-06-07T08:22:43.557Z,5.72
2019-06-07T08:25:14.370Z,5.87
2019-06-07T08:27:44.210Z,5.43
2019-06-07T08:32:57.580Z,5.50
2019-06-07T15:56:50.187Z,4.05
2019-06-07T15:59:20.132Z,3.20
2019-06-07T16:01:50.036Z,3.42
2019-06-07T16:04:19.922Z,3.17
2019-06-07T16:06:49.733Z,3.00
2019-06-07T16:09:19.488Z,3.45
2019-06-07T16:11:49.351Z,3.00
2019-06-07T16:14:19.143Z,2.98
2019-06-07T16:16:48.891Z,3.00
2019-06-07T16:19:18.698Z,3.20
2019-06-07T16:21:48.568Z,3.22
2019-06-07T16:24:18.131Z,2.98
2019-06-07T16:26:47.990Z,3.10
2019-06-07T16:29:17.752Z,3.10
2019-06-07T16:31:47.638Z,2.80
2019-06-07T16:34:18.476Z,3.22
2019-06-07T16:36:48.839Z,3.15
2019-06-07T16:39:19.795Z,3.00
2019-06-07T16:41:49.659Z,3.15
2019-06-07T16:44:19.571Z,3.10
2019-06-07T16:46:49.436Z,3.37
2019-06-07T16:49:19.383Z,3.33
2019-06-07T16:51:49.499Z,3.72
2019-06-07T16:54:20.432Z,3.52
2019-06-07T16:56:51.435Z,3.60
2019-06-07T16:59:21.226Z,3.65
2019-06-07T17:01:51.103Z,3.72
2019-06-07T17:04:20.891Z,3.20
2019-06-07T17:06:50.483Z,3.00
2019-06-07T17:09:21.475Z,3.65
2019-06-07T17:11:51.398Z,3.22
2019-06-07T17:14:21.227Z,3.20
2019-06-07T17:16:50.961Z,3.52
2019-06-07T17:19:20.895Z,3.37
2019-06-07T17:21:50.740Z,3.42
2019-06-07T17:24:20.552Z,3.22
2019-06-07T17:26:50.453Z,3.30
2019-06-07T17:29:20.308Z,3.42
2019-06-07T17:31:50.369Z,2.37
2019-06-07T17:34:20.350Z,2.90
2019-06-07T17:36:50.697Z,3.10
2019-06-07T17:39:23.105Z,3.42
2019-06-07T17:42:01.639Z,3.37
2019-06-07T17:44:24.190Z,3.42
2019-06-07T17:46:54.524Z,3.58
2019-06-07T17:49:25.984Z,3.65
2019-06-07T17:51:55.902Z,3.87
2019-06-07T17:54:25.660Z,4.15
2019-06-07T17:56:55.582Z,4.03
2019-06-07T17:59:33.436Z,4.35
2019-06-07T18:02:14.043Z,4.70
2019-06-07T18:04:35.566Z,4.42
2019-06-07T18:07:05.579Z,4.80
2019-06-07T18:09:36.660Z,4.45
2019-06-07T18:12:06.837Z,4.30
2019-06-07T18:14:37.817Z,4.87
2019-06-07T18:17:07.555Z,4.78
2019-06-07T18:19:37.757Z,5.30
2019-06-07T18:22:07.699Z,5.50
2019-06-07T18:24:37.545Z,5.22
2019-06-07T18:27:07.415Z,5.20
2019-06-07T18:29:37.332Z,5.78
2019-06-07T18:32:07.203Z,5.20
2019-06-07T18:34:36.913Z,5.10
2019-06-07T18:37:06.671Z,5.10
2019-06-07T18:39:36.527Z,5.75
2019-06-07T18:42:06.440Z,5.90
2019-06-07T18:44:36.175Z,5.55
2019-06-07T18:47:06.831Z,5.90
2019-06-07T18:49:36.630Z,6.87
2019-06-07T18:52:08.126Z,7.47
2019-06-07T18:54:37.992Z,6.78
2019-06-07T18:57:07.977Z,6.60
2019-06-07T18:59:38.028Z,6.40
2019-06-07T19:02:08.364Z,6.45
2019-06-07T19:04:38.136Z,7.45
2019-06-07T19:07:07.936Z,6.72
2019-06-07T19:09:37.659Z,6.37
2019-06-07T19:12:07.516Z,6.83
2019-06-07T19:14:37.590Z,6.83
2019-06-07T19:17:07.476Z,6.55
2019-06-07T19:19:37.195Z,6.92
2019-06-07T19:22:07.156Z,6.37
2019-06-07T19:24:36.992Z,7.28
2019-06-07T19:27:06.887Z,6.92
2019-06-07T19:29:36.803Z,6.72
2019-06-07T19:32:07.917Z,6.60
2019-06-07T19:34:37.543Z,6.58
2019-06-07T19:37:07.027Z,7.10
2019-06-07T19:39:36.897Z,6.60
2019-06-07T19:42:06.785Z,6.78
2019-06-07T19:44:51.758Z,6.40
2019-06-07T19:47:08.273Z,6.85
2019-06-07T19:49:38.085Z,7.00
2019-06-07T19:52:07.985Z,6.90
2019-06-07T19:54:37.731Z,6.95
2019-06-07T19:57:07.626Z,6.92
2019-06-07T19:59:37.557Z,7.30
2019-06-07T20:02:07.481Z,7.67
2019-06-07T20:04:37.332Z,6.83
2019-06-07T20:07:07.318Z,7.25
2019-06-07T20:09:38.249Z,6.83
2019-06-07T20:12:08.254Z,7.30
2019-06-07T20:14:38.192Z,7.53
2019-06-07T20:17:08.069Z,7.80
2019-06-07T20:19:37.766Z,6.60
2019-06-07T20:22:07.642Z,7.03
2019-06-07T20:24:38.401Z,8.08
2019-06-07T20:27:08.533Z,8.03
2019-06-07T20:29:39.493Z,7.47
2019-06-07T20:32:09.319Z,7.33
2019-06-07T20:34:39.164Z,7.50
2019-06-07T20:37:09.157Z,8.00
2019-06-07T20:39:39.067Z,7.33
2019-06-07T20:42:08.891Z,7.90
2019-06-07T20:44:38.666Z,7.72
2019-06-07T20:47:08.501Z,8.08
2019-06-07T20:49:38.269Z,8.08
2019-06-07T20:52:08.617Z,8.73
2019-06-07T20:54:38.531Z,8.03
2019-06-07T20:57:09.301Z,8.63
2019-06-07T20:59:39.211Z,8.75
2019-06-07T21:02:09.681Z,8.70
2019-06-07T21:04:39.727Z,8.88
2019-06-07T21:07:10.237Z,9.13
2019-06-07T21:09:40.208Z,9.00
2019-06-07T21:12:10.062Z,8.38
2019-06-07T21:14:39.743Z,9.13
2019-06-07T21:17:10.333Z,8.73
2019-06-07T21:19:40.345Z,9.13
2019-06-07T21:22:11.289Z,8.50
2019-06-07T21:24:41.204Z,9.68
2019-06-07T21:27:11.418Z,8.80
2019-06-07T21:29:41.404Z,8.93
2019-06-07T21:32:11.759Z,9.68
2019-06-07T21:34:41.773Z,9.65
2019-06-07T21:37:12.708Z,9.57
2019-06-07T21:39:42.475Z,9.35
2019-06-07T21:42:12.484Z,9.63
2019-06-07T21:44:42.315Z,9.85
2019-06-07T21:47:12.770Z,10.08
2019-06-07T21:49:42.777Z,10.23
2019-06-07T21:52:12.955Z,9.85
2019-06-07T21:54:42.791Z,10.18
2019-06-07T21:57:13.220Z,10.40
2019-06-07T21:59:43.332Z,11.18
2019-06-07T22:02:13.762Z,10.35
2019-06-07T22:04:43.835Z,10.90
2019-06-07T22:07:13.731Z,9.98
2019-06-07T22:09:43.628Z,11.43
2019-06-07T22:12:14.290Z,10.50
2019-06-07T22:14:44.333Z,10.95
2019-06-07T22:17:14.556Z,10.72
2019-06-07T22:19:44.435Z,10.78
2019-06-07T22:22:15.252Z,11.20
2019-06-07T22:24:45.155Z,10.93
2019-06-07T22:27:15.640Z,10.53
2019-06-07T22:29:45.618Z,10.43
2019-06-07T22:32:15.421Z,11.05
2019-06-07T22:34:45.126Z,10.08
2019-06-07T22:37:17.349Z,10.40
2019-06-07T22:39:46.338Z,9.58
2019-06-07T22:42:16.143Z,10.03
2019-06-07T22:44:46.011Z,9.98
2019-06-07T22:47:16.192Z,10.00
2019-06-07T22:49:45.970Z,9.45
2019-06-07T22:52:17.321Z,10.35
2019-06-07T22:54:47.203Z,9.63
2019-06-07T22:57:18.661Z,9.60
2019-06-07T22:59:48.391Z,9.45
2019-06-07T23:02:18.817Z,9.13
2019-06-07T23:04:48.663Z,9.40
2019-06-07T23:07:19.200Z,9.13
2019-06-07T23:09:49.181Z,9.55
2019-06-07T23:12:19.568Z,9.88
2019-06-07T23:14:49.520Z,10.20
2019-06-07T23:17:20.732Z,9.28
2019-06-07T23:19:50.560Z,9.55
2019-06-07T23:22:20.390Z,9.10
2019-06-07T23:24:50.103Z,9.98
2019-06-07T23:27:20.754Z,9.73
2019-06-07T23:29:51.602Z,9.50
2019-06-07T23:32:21.652Z,9.48
2019-06-07T23:34:51.515Z,10.03
2019-06-07T23:37:21.469Z,9.40
2019-06-07T23:39:51.291Z,9.58
2019-06-07T23:42:21.840Z,9.40
2019-06-07T23:44:51.813Z,9.38
2019-06-07T23:47:22.408Z,9.48
2019-06-07T23:49:52.396Z,9.18
2019-06-07T23:52:22.532Z,9.25
2019-06-07T23:54:52.315Z,9.55
2019-06-07T23:57:22.671Z,9.43
2019-06-07T23:59:53.653Z,9.25
